sensor_id;sensor_type;location;lat;lon;timestamp;temperature;humidity
41481;DHT22;27217;51.220;5.308;2024-03-06T00:02:10;7.60;99.90
41481;DHT22;27217;51.220;5.308;2024-03-06T00:04:35;7.50;99.90
41481;DHT22;27217;51.220;5.308;2024-03-06T00:07:01;7.50;99.90
41481;DHT22;27217;51.220;5.308;2024-03-06T00:09:27;7.50;99.90
41481;DHT22;27217;51.220;5.308;2024-03-06T00:11:53;7.40;99.90
41481;DHT22;27217;51.220;5.308;2024-03-06T00:14:19;7.40;99.90
41481;DHT22;27217;51.220;5.308;2024-03-06T00:16:45;7.40;99.90
41481;DHT22;27217;51.220;5.308;2024-03-06T00:19:10;7.20;99.90
41481;DHT22;27217;51.220;5.308;2024-03-06T00:21:36;8.00;99.90
41481;DHT22;27217;51.220;5.308;2024-03-06T00:24:02;7.20;99.90
41481;DHT22;27217;51.220;5.308;2024-03-06T00:26:29;7.20;99.90
41481;DHT22;27217;51.220;5.308;2024-03-06T00:28:54;7.20;99.90
41481;DHT22;27217;51.220;5.308;2024-03-06T00:31:20;7.20;99.90
41481;DHT22;27217;51.220;5.308;2024-03-06T00:33:48;7.20;99.90
41481;DHT22;27217;51.220;5.308;2024-03-06T00:36:14;7.90;99.90
41481;DHT22;27217;51.220;5.308;2024-03-06T00:38:39;7.00;99.90
41481;DHT22;27217;51.220;5.308;2024-03-06T00:41:05;7.00;99.90
41481;DHT22;27217;51.220;5.308;2024-03-06T00:43:31;7.00;99.90
41481;DHT22;27217;51.220;5.308;2024-03-06T00:45:56;7.00;99.90
41481;DHT22;27217;51.220;5.308;2024-03-06T00:48:22;6.90;99.90
41481;DHT22;27217;51.220;5.308;2024-03-06T00:50:48;6.80;99.90
41481;DHT22;27217;51.220;5.308;2024-03-06T00:53:13;6.70;99.90
41481;DHT22;27217;51.220;5.308;2024-03-06T00:55:39;6.80;99.90
41481;DHT22;27217;51.220;5.308;2024-03-06T00:58:05;6.70;99.90
41481;DHT22;27217;51.220;5.308;2024-03-06T01:00:31;6.70;99.90
41481;DHT22;27217;51.220;5.308;2024-03-06T01:02:57;6.60;99.90
41481;DHT22;27217;51.220;5.308;2024-03-06T01:05:23;6.40;99.90
41481;DHT22;27217;51.220;5.308;2024-03-06T01:07:48;6.40;99.90
41481;DHT22;27217;51.220;5.308;2024-03-06T01:10:14;6.40;99.90
41481;DHT22;27217;51.220;5.308;2024-03-06T01:12:39;6.40;99.90
41481;DHT22;27217;51.220;5.308;2024-03-06T01:15:05;6.30;99.90
41481;DHT22;27217;51.220;5.308;2024-03-06T01:17:31;6.20;99.90
41481;DHT22;27217;51.220;5.308;2024-03-06T01:19:57;6.20;99.90
41481;DHT22;27217;51.220;5.308;2024-03-06T01:22:24;6.10;99.90
41481;DHT22;27217;51.220;5.308;2024-03-06T01:24:50;6.00;99.90
41481;DHT22;27217;51.220;5.308;2024-03-06T01:27:16;6.00;99.90
41481;DHT22;27217;51.220;5.308;2024-03-06T01:29:41;6.20;99.90
41481;DHT22;27217;51.220;5.308;2024-03-06T01:32:07;6.80;99.90
41481;DHT22;27217;51.220;5.308;2024-03-06T01:34:33;6.30;99.90
41481;DHT22;27217;51.220;5.308;2024-03-06T01:36:58;6.40;99.90
41481;DHT22;27217;51.220;5.308;2024-03-06T01:39:24;6.30;99.90
41481;DHT22;27217;51.220;5.308;2024-03-06T01:41:50;6.40;99.90
41481;DHT22;27217;51.220;5.308;2024-03-06T01:44:16;6.30;99.90
41481;DHT22;27217;51.220;5.308;2024-03-06T01:46:42;6.30;99.90
41481;DHT22;27217;51.220;5.308;2024-03-06T01:49:08;6.20;99.90
41481;DHT22;27217;51.220;5.308;2024-03-06T01:51:34;6.30;99.90
41481;DHT22;27217;51.220;5.308;2024-03-06T01:54:00;6.20;99.90
41481;DHT22;27217;51.220;5.308;2024-03-06T01:56:26;6.10;99.90
41481;DHT22;27217;51.220;5.308;2024-03-06T01:58:52;6.10;99.90
41481;DHT22;27217;51.220;5.308;2024-03-06T02:01:19;6.10;99.90
41481;DHT22;27217;51.220;5.308;2024-03-06T02:03:44;5.80;99.90
41481;DHT22;27217;51.220;5.308;2024-03-06T02:06:10;6.00;99.90
41481;DHT22;27217;51.220;5.308;2024-03-06T02:08:37;6.40;99.90
41481;DHT22;27217;51.220;5.308;2024-03-06T02:11:02;6.80;99.90
41481;DHT22;27217;51.220;5.308;2024-03-06T02:13:29;6.80;99.90
41481;DHT22;27217;51.220;5.308;2024-03-06T02:15:54;6.70;99.90
41481;DHT22;27217;51.220;5.308;2024-03-06T02:18:20;6.60;99.90
41481;DHT22;27217;51.220;5.308;2024-03-06T02:20:46;7.00;99.90
41481;DHT22;27217;51.220;5.308;2024-03-06T02:23:12;6.00;99.90
41481;DHT22;27217;51.220;5.308;2024-03-06T02:25:40;5.80;99.90
41481;DHT22;27217;51.220;5.308;2024-03-06T02:28:05;5.80;99.90
41481;DHT22;27217;51.220;5.308;2024-03-06T02:30:31;5.70;99.90
41481;DHT22;27217;51.220;5.308;2024-03-06T02:33:05;5.70;99.90
41481;DHT22;27217;51.220;5.308;2024-03-06T02:35:31;5.60;99.90
41481;DHT22;27217;51.220;5.308;2024-03-06T02:38:00;5.60;99.90
41481;DHT22;27217;51.220;5.308;2024-03-06T02:40:26;5.50;99.90
41481;DHT22;27217;51.220;5.308;2024-03-06T02:42:52;6.10;99.90
41481;DHT22;27217;51.220;5.308;2024-03-06T02:45:17;6.10;99.90
41481;DHT22;27217;51.220;5.308;2024-03-06T02:47:44;5.50;99.90
41481;DHT22;27217;51.220;5.308;2024-03-06T02:50:09;5.50;99.90
41481;DHT22;27217;51.220;5.308;2024-03-06T02:52:35;5.90;99.90
41481;DHT22;27217;51.220;5.308;2024-03-06T02:55:01;5.50;99.90
41481;DHT22;27217;51.220;5.308;2024-03-06T02:57:27;5.40;99.90
41481;DHT22;27217;51.220;5.308;2024-03-06T02:59:56;5.40;99.90
41481;DHT22;27217;51.220;5.308;2024-03-06T03:02:22;5.70;99.90
41481;DHT22;27217;51.220;5.308;2024-03-06T03:04:49;5.70;99.90
41481;DHT22;27217;51.220;5.308;2024-03-06T03:07:14;5.70;99.90
41481;DHT22;27217;51.220;5.308;2024-03-06T03:09:40;5.50;99.90
41481;DHT22;27217;51.220;5.308;2024-03-06T03:12:06;6.40;99.90
41481;DHT22;27217;51.220;5.308;2024-03-06T03:14:31;5.40;99.90
41481;DHT22;27217;51.220;5.308;2024-03-06T03:16:57;5.20;99.90
41481;DHT22;27217;51.220;5.308;2024-03-06T03:19:22;5.20;99.90
41481;DHT22;27217;51.220;5.308;2024-03-06T03:21:48;5.40;99.90
41481;DHT22;27217;51.220;5.308;2024-03-06T03:24:13;4.80;99.90
41481;DHT22;27217;51.220;5.308;2024-03-06T03:26:39;4.90;99.90
41481;DHT22;27217;51.220;5.308;2024-03-06T03:29:07;5.30;99.90
41481;DHT22;27217;51.220;5.308;2024-03-06T03:31:33;5.20;99.90
41481;DHT22;27217;51.220;5.308;2024-03-06T03:33:58;6.20;99.90
41481;DHT22;27217;51.220;5.308;2024-03-06T03:36:24;5.40;99.90
41481;DHT22;27217;51.220;5.308;2024-03-06T03:38:50;6.30;99.90
41481;DHT22;27217;51.220;5.308;2024-03-06T03:41:15;5.30;99.90
41481;DHT22;27217;51.220;5.308;2024-03-06T03:43:44;5.20;99.90
41481;DHT22;27217;51.220;5.308;2024-03-06T03:46:10;5.20;99.90
41481;DHT22;27217;51.220;5.308;2024-03-06T03:48:36;5.10;99.90
41481;DHT22;27217;51.220;5.308;2024-03-06T03:51:05;5.10;99.90
41481;DHT22;27217;51.220;5.308;2024-03-06T03:53:30;5.10;99.90
41481;DHT22;27217;51.220;5.308;2024-03-06T03:55:56;5.10;99.90
41481;DHT22;27217;51.220;5.308;2024-03-06T03:58:22;5.60;99.90
41481;DHT22;27217;51.220;5.308;2024-03-06T04:00:47;5.60;99.90
41481;DHT22;27217;51.220;5.308;2024-03-06T04:03:13;5.40;99.90
41481;DHT22;27217;51.220;5.308;2024-03-06T04:05:38;5.60;99.90
41481;DHT22;27217;51.220;5.308;2024-03-06T04:08:04;4.90;99.90
41481;DHT22;27217;51.220;5.308;2024-03-06T04:10:31;4.90;99.90
41481;DHT22;27217;51.220;5.308;2024-03-06T04:12:58;5.80;99.90
41481;DHT22;27217;51.220;5.308;2024-03-06T04:15:25;5.60;99.90
41481;DHT22;27217;51.220;5.308;2024-03-06T04:17:50;5.20;99.90
41481;DHT22;27217;51.220;5.308;2024-03-06T04:20:16;5.40;99.90
41481;DHT22;27217;51.220;5.308;2024-03-06T04:22:42;5.50;99.90
41481;DHT22;27217;51.220;5.308;2024-03-06T04:25:08;5.70;99.90
41481;DHT22;27217;51.220;5.308;2024-03-06T04:27:34;5.70;99.90
41481;DHT22;27217;51.220;5.308;2024-03-06T04:30:00;6.10;99.90
41481;DHT22;27217;51.220;5.308;2024-03-06T04:32:26;5.60;99.90
41481;DHT22;27217;51.220;5.308;2024-03-06T04:34:51;5.50;99.90
41481;DHT22;27217;51.220;5.308;2024-03-06T04:37:19;5.70;99.90
41481;DHT22;27217;51.220;5.308;2024-03-06T04:39:44;5.80;99.90
41481;DHT22;27217;51.220;5.308;2024-03-06T04:42:10;5.60;99.90
41481;DHT22;27217;51.220;5.308;2024-03-06T04:44:36;5.30;99.90
41481;DHT22;27217;51.220;5.308;2024-03-06T04:47:01;6.00;99.90
41481;DHT22;27217;51.220;5.308;2024-03-06T04:49:27;5.40;99.90
41481;DHT22;27217;51.220;5.308;2024-03-06T04:51:53;5.40;99.90
41481;DHT22;27217;51.220;5.308;2024-03-06T04:54:18;5.30;99.90
41481;DHT22;27217;51.220;5.308;2024-03-06T04:56:44;5.10;99.90
41481;DHT22;27217;51.220;5.308;2024-03-06T04:59:10;4.90;99.90
41481;DHT22;27217;51.220;5.308;2024-03-06T05:01:35;5.20;99.90
41481;DHT22;27217;51.220;5.308;2024-03-06T05:04:01;5.00;99.90
41481;DHT22;27217;51.220;5.308;2024-03-06T05:06:26;5.40;99.90
41481;DHT22;27217;51.220;5.308;2024-03-06T05:08:52;4.80;99.90
41481;DHT22;27217;51.220;5.308;2024-03-06T05:11:17;4.70;99.90
41481;DHT22;27217;51.220;5.308;2024-03-06T05:13:43;4.70;99.90
41481;DHT22;27217;51.220;5.308;2024-03-06T05:16:08;4.70;99.90
41481;DHT22;27217;51.220;5.308;2024-03-06T05:18:34;5.70;99.90
41481;DHT22;27217;51.220;5.308;2024-03-06T05:21:00;4.70;99.90
41481;DHT22;27217;51.220;5.308;2024-03-06T05:23:25;4.60;99.90
41481;DHT22;27217;51.220;5.308;2024-03-06T05:25:51;5.60;99.90
41481;DHT22;27217;51.220;5.308;2024-03-06T05:28:16;4.40;99.90
41481;DHT22;27217;51.220;5.308;2024-03-06T05:30:42;5.00;99.90
41481;DHT22;27217;51.220;5.308;2024-03-06T05:33:08;4.50;99.90
41481;DHT22;27217;51.220;5.308;2024-03-06T05:35:33;5.30;99.90
41481;DHT22;27217;51.220;5.308;2024-03-06T05:37:59;4.30;99.90
41481;DHT22;27217;51.220;5.308;2024-03-06T05:40:24;5.00;99.90
41481;DHT22;27217;51.220;5.308;2024-03-06T05:42:50;4.60;99.90
41481;DHT22;27217;51.220;5.308;2024-03-06T05:45:16;4.80;99.90
41481;DHT22;27217;51.220;5.308;2024-03-06T05:47:42;4.20;99.90
41481;DHT22;27217;51.220;5.308;2024-03-06T05:50:08;4.20;99.90
41481;DHT22;27217;51.220;5.308;2024-03-06T05:52:36;4.20;99.90
41481;DHT22;27217;51.220;5.308;2024-03-06T05:55:01;4.10;99.90
41481;DHT22;27217;51.220;5.308;2024-03-06T05:57:27;4.80;99.90
41481;DHT22;27217;51.220;5.308;2024-03-06T05:59:52;4.10;99.90
41481;DHT22;27217;51.220;5.308;2024-03-06T06:02:18;4.20;99.90
41481;DHT22;27217;51.220;5.308;2024-03-06T06:04:45;4.00;99.90
41481;DHT22;27217;51.220;5.308;2024-03-06T06:07:10;4.60;99.90
41481;DHT22;27217;51.220;5.308;2024-03-06T06:09:36;4.00;99.90
41481;DHT22;27217;51.220;5.308;2024-03-06T06:12:02;4.00;99.90
41481;DHT22;27217;51.220;5.308;2024-03-06T06:14:27;4.10;99.90
41481;DHT22;27217;51.220;5.308;2024-03-06T06:16:55;4.90;99.90
41481;DHT22;27217;51.220;5.308;2024-03-06T06:19:20;4.90;99.90
41481;DHT22;27217;51.220;5.308;2024-03-06T06:21:49;3.80;99.90
41481;DHT22;27217;51.220;5.308;2024-03-06T06:24:16;3.70;99.90
41481;DHT22;27217;51.220;5.308;2024-03-06T06:26:42;3.70;99.90
41481;DHT22;27217;51.220;5.308;2024-03-06T06:29:07;3.60;99.90
41481;DHT22;27217;51.220;5.308;2024-03-06T06:31:33;4.40;99.90
41481;DHT22;27217;51.220;5.308;2024-03-06T06:34:00;3.70;99.90
41481;DHT22;27217;51.220;5.308;2024-03-06T06:36:26;3.80;99.90
41481;DHT22;27217;51.220;5.308;2024-03-06T06:38:52;3.80;99.90
41481;DHT22;27217;51.220;5.308;2024-03-06T06:41:18;3.80;99.90
41481;DHT22;27217;51.220;5.308;2024-03-06T06:43:44;3.80;99.90
41481;DHT22;27217;51.220;5.308;2024-03-06T06:46:10;4.40;99.90
41481;DHT22;27217;51.220;5.308;2024-03-06T06:48:36;3.70;99.90
41481;DHT22;27217;51.220;5.308;2024-03-06T06:51:02;4.00;99.90
41481;DHT22;27217;51.220;5.308;2024-03-06T06:53:30;3.70;99.90
41481;DHT22;27217;51.220;5.308;2024-03-06T06:55:56;4.60;99.90
41481;DHT22;27217;51.220;5.308;2024-03-06T06:58:22;3.90;99.90
41481;DHT22;27217;51.220;5.308;2024-03-06T07:00:48;4.00;99.90
41481;DHT22;27217;51.220;5.308;2024-03-06T07:03:13;4.10;99.90
41481;DHT22;27217;51.220;5.308;2024-03-06T07:05:39;4.10;99.90
41481;DHT22;27217;51.220;5.308;2024-03-06T07:08:07;4.20;99.90
41481;DHT22;27217;51.220;5.308;2024-03-06T07:10:32;4.20;99.90
41481;DHT22;27217;51.220;5.308;2024-03-06T07:12:58;4.30;99.90
41481;DHT22;27217;51.220;5.308;2024-03-06T07:15:23;4.40;99.90
41481;DHT22;27217;51.220;5.308;2024-03-06T07:17:50;4.50;99.90
41481;DHT22;27217;51.220;5.308;2024-03-06T07:20:16;4.50;99.90
41481;DHT22;27217;51.220;5.308;2024-03-06T07:22:42;4.50;99.90
41481;DHT22;27217;51.220;5.308;2024-03-06T07:25:08;4.40;99.90
41481;DHT22;27217;51.220;5.308;2024-03-06T07:27:33;4.50;99.90
41481;DHT22;27217;51.220;5.308;2024-03-06T07:29:59;4.70;99.90
41481;DHT22;27217;51.220;5.308;2024-03-06T07:32:25;4.70;99.90
41481;DHT22;27217;51.220;5.308;2024-03-06T07:34:51;4.70;99.90
41481;DHT22;27217;51.220;5.308;2024-03-06T07:37:19;4.70;99.90
41481;DHT22;27217;51.220;5.308;2024-03-06T07:39:45;4.80;99.90
41481;DHT22;27217;51.220;5.308;2024-03-06T07:42:11;4.80;99.90
41481;DHT22;27217;51.220;5.308;2024-03-06T07:44:36;4.80;99.90
41481;DHT22;27217;51.220;5.308;2024-03-06T07:47:02;5.40;99.90
41481;DHT22;27217;51.220;5.308;2024-03-06T07:49:28;5.30;99.90
41481;DHT22;27217;51.220;5.308;2024-03-06T07:51:53;5.10;99.90
41481;DHT22;27217;51.220;5.308;2024-03-06T07:54:19;5.30;99.90
41481;DHT22;27217;51.220;5.308;2024-03-06T07:56:45;5.40;99.90
41481;DHT22;27217;51.220;5.308;2024-03-06T07:59:10;5.50;99.90
41481;DHT22;27217;51.220;5.308;2024-03-06T08:01:38;5.60;99.90
41481;DHT22;27217;51.220;5.308;2024-03-06T08:04:03;5.80;99.90
41481;DHT22;27217;51.220;5.308;2024-03-06T08:06:29;6.00;99.90
41481;DHT22;27217;51.220;5.308;2024-03-06T08:08:58;6.10;99.90
41481;DHT22;27217;51.220;5.308;2024-03-06T08:11:24;6.40;99.90
41481;DHT22;27217;51.220;5.308;2024-03-06T08:13:50;6.50;99.90
41481;DHT22;27217;51.220;5.308;2024-03-06T08:16:15;5.50;99.90
41481;DHT22;27217;51.220;5.308;2024-03-06T08:18:42;6.60;99.90
41481;DHT22;27217;51.220;5.308;2024-03-06T08:21:08;6.80;99.90
41481;DHT22;27217;51.220;5.308;2024-03-06T08:23:34;7.20;99.90
41481;DHT22;27217;51.220;5.308;2024-03-06T08:25:59;7.10;99.90
41481;DHT22;27217;51.220;5.308;2024-03-06T08:28:25;7.00;99.90
41481;DHT22;27217;51.220;5.308;2024-03-06T08:30:52;7.00;99.90
41481;DHT22;27217;51.220;5.308;2024-03-06T08:33:17;7.10;99.90
41481;DHT22;27217;51.220;5.308;2024-03-06T08:35:43;7.10;99.90
41481;DHT22;27217;51.220;5.308;2024-03-06T08:38:08;7.10;99.90
41481;DHT22;27217;51.220;5.308;2024-03-06T08:40:34;7.30;99.90
41481;DHT22;27217;51.220;5.308;2024-03-06T08:43:00;7.50;99.90
41481;DHT22;27217;51.220;5.308;2024-03-06T08:45:25;7.50;99.90
41481;DHT22;27217;51.220;5.308;2024-03-06T08:47:51;7.50;99.90
41481;DHT22;27217;51.220;5.308;2024-03-06T08:50:19;7.50;99.90
41481;DHT22;27217;51.220;5.308;2024-03-06T08:52:45;7.60;99.90
41481;DHT22;27217;51.220;5.308;2024-03-06T08:55:11;7.60;99.90
41481;DHT22;27217;51.220;5.308;2024-03-06T08:57:37;7.60;99.90
41481;DHT22;27217;51.220;5.308;2024-03-06T09:00:03;7.60;99.90
41481;DHT22;27217;51.220;5.308;2024-03-06T09:02:29;7.60;99.90
41481;DHT22;27217;51.220;5.308;2024-03-06T09:04:55;7.70;99.90
41481;DHT22;27217;51.220;5.308;2024-03-06T09:07:21;7.60;99.90
41481;DHT22;27217;51.220;5.308;2024-03-06T09:09:50;7.80;99.90
41481;DHT22;27217;51.220;5.308;2024-03-06T09:12:19;7.90;99.90
41481;DHT22;27217;51.220;5.308;2024-03-06T09:14:44;8.00;99.90
41481;DHT22;27217;51.220;5.308;2024-03-06T09:17:10;8.20;99.90
41481;DHT22;27217;51.220;5.308;2024-03-06T09:19:38;8.30;99.90
41481;DHT22;27217;51.220;5.308;2024-03-06T09:22:03;8.40;99.90
41481;DHT22;27217;51.220;5.308;2024-03-06T09:24:32;8.50;99.90
41481;DHT22;27217;51.220;5.308;2024-03-06T09:26:58;8.50;99.90
41481;DHT22;27217;51.220;5.308;2024-03-06T09:29:23;8.60;99.90
41481;DHT22;27217;51.220;5.308;2024-03-06T09:31:49;8.70;99.90
41481;DHT22;27217;51.220;5.308;2024-03-06T09:34:15;9.00;99.90
41481;DHT22;27217;51.220;5.308;2024-03-06T09:36:50;9.30;99.90
41481;DHT22;27217;51.220;5.308;2024-03-06T09:39:15;9.20;99.90
41481;DHT22;27217;51.220;5.308;2024-03-06T09:41:45;9.20;99.90
41481;DHT22;27217;51.220;5.308;2024-03-06T09:44:14;9.30;99.90
41481;DHT22;27217;51.220;5.308;2024-03-06T09:46:47;9.20;99.90
41481;DHT22;27217;51.220;5.308;2024-03-06T09:49:14;9.30;99.90
41481;DHT22;27217;51.220;5.308;2024-03-06T09:51:44;9.60;99.90
41481;DHT22;27217;51.220;5.308;2024-03-06T09:54:15;9.80;99.90
41481;DHT22;27217;51.220;5.308;2024-03-06T09:56:41;9.70;99.90
41481;DHT22;27217;51.220;5.308;2024-03-06T09:59:08;9.80;99.90
41481;DHT22;27217;51.220;5.308;2024-03-06T10:01:34;9.90;99.90
41481;DHT22;27217;51.220;5.308;2024-03-06T10:04:16;10.20;99.90
41481;DHT22;27217;51.220;5.308;2024-03-06T10:06:42;10.20;99.90
41481;DHT22;27217;51.220;5.308;2024-03-06T10:09:09;10.40;99.90
41481;DHT22;27217;51.220;5.308;2024-03-06T10:11:41;10.50;99.90
41481;DHT22;27217;51.220;5.308;2024-03-06T10:14:08;10.60;99.90
41481;DHT22;27217;51.220;5.308;2024-03-06T10:16:35;10.60;99.90
41481;DHT22;27217;51.220;5.308;2024-03-06T10:19:17;10.40;99.90
41481;DHT22;27217;51.220;5.308;2024-03-06T10:21:44;10.60;99.90
41481;DHT22;27217;51.220;5.308;2024-03-06T10:24:17;10.70;99.90
41481;DHT22;27217;51.220;5.308;2024-03-06T10:26:44;10.90;99.90
41481;DHT22;27217;51.220;5.308;2024-03-06T10:29:09;11.10;99.90
41481;DHT22;27217;51.220;5.308;2024-03-06T10:31:35;11.00;99.90
41481;DHT22;27217;51.220;5.308;2024-03-06T10:34:00;11.00;99.90
41481;DHT22;27217;51.220;5.308;2024-03-06T10:36:26;10.90;99.90
41481;DHT22;27217;51.220;5.308;2024-03-06T10:38:52;11.40;99.90
41481;DHT22;27217;51.220;5.308;2024-03-06T10:41:19;11.40;99.90
41481;DHT22;27217;51.220;5.308;2024-03-06T10:43:46;11.10;99.90
41481;DHT22;27217;51.220;5.308;2024-03-06T10:46:13;12.30;99.90
41481;DHT22;27217;51.220;5.308;2024-03-06T10:48:38;12.60;99.90
41481;DHT22;27217;51.220;5.308;2024-03-06T10:51:05;12.70;99.90
41481;DHT22;27217;51.220;5.308;2024-03-06T10:53:32;13.30;99.90
41481;DHT22;27217;51.220;5.308;2024-03-06T10:56:00;13.80;99.90
41481;DHT22;27217;51.220;5.308;2024-03-06T10:58:27;13.90;96.10
41481;DHT22;27217;51.220;5.308;2024-03-06T11:00:55;13.40;98.10
41481;DHT22;27217;51.220;5.308;2024-03-06T11:03:23;13.30;99.30
41481;DHT22;27217;51.220;5.308;2024-03-06T11:05:49;13.20;99.80
41481;DHT22;27217;51.220;5.308;2024-03-06T11:08:17;13.30;99.90
41481;DHT22;27217;51.220;5.308;2024-03-06T11:10:42;14.10;93.50
41481;DHT22;27217;51.220;5.308;2024-03-06T11:13:20;14.80;87.20
41481;DHT22;27217;51.220;5.308;2024-03-06T11:15:49;16.90;67.10
41481;DHT22;27217;51.220;5.308;2024-03-06T11:18:58;17.60;60.50
41481;DHT22;27217;51.220;5.308;2024-03-06T11:23:30;15.60;71.50
41481;DHT22;27217;51.220;5.308;2024-03-06T11:25:57;15.50;75.40
41481;DHT22;27217;51.220;5.308;2024-03-06T11:28:31;15.10;78.80
41481;DHT22;27217;51.220;5.308;2024-03-06T11:30:58;14.70;83.90
41481;DHT22;27217;51.220;5.308;2024-03-06T11:33:28;15.10;83.30
41481;DHT22;27217;51.220;5.308;2024-03-06T11:38:39;14.90;81.70
41481;DHT22;27217;51.220;5.308;2024-03-06T11:41:05;15.10;80.60
41481;DHT22;27217;51.220;5.308;2024-03-06T11:43:41;15.10;75.30
41481;DHT22;27217;51.220;5.308;2024-03-06T11:46:07;15.10;74.50
41481;DHT22;27217;51.220;5.308;2024-03-06T11:48:34;15.50;73.40
41481;DHT22;27217;51.220;5.308;2024-03-06T11:50:59;15.40;72.40
41481;DHT22;27217;51.220;5.308;2024-03-06T11:53:30;15.30;72.40
41481;DHT22;27217;51.220;5.308;2024-03-06T11:55:58;15.50;72.70
41481;DHT22;27217;51.220;5.308;2024-03-06T11:58:23;15.50;74.10
41481;DHT22;27217;51.220;5.308;2024-03-06T12:00:49;15.60;73.60
41481;DHT22;27217;51.220;5.308;2024-03-06T12:03:15;15.70;69.60
41481;DHT22;27217;51.220;5.308;2024-03-06T12:05:40;15.70;68.30
41481;DHT22;27217;51.220;5.308;2024-03-06T12:08:06;15.70;68.20
41481;DHT22;27217;51.220;5.308;2024-03-06T12:10:38;15.70;69.80
41481;DHT22;27217;51.220;5.308;2024-03-06T12:13:07;15.80;67.80
41481;DHT22;27217;51.220;5.308;2024-03-06T12:15:32;16.10;66.80
41481;DHT22;27217;51.220;5.308;2024-03-06T12:17:58;15.50;67.40
41481;DHT22;27217;51.220;5.308;2024-03-06T12:20:24;15.40;69.70
41481;DHT22;27217;51.220;5.308;2024-03-06T12:22:51;15.40;72.40
41481;DHT22;27217;51.220;5.308;2024-03-06T12:25:18;16.00;64.20
41481;DHT22;27217;51.220;5.308;2024-03-06T12:27:44;16.00;60.30
41481;DHT22;27217;51.220;5.308;2024-03-06T12:30:10;15.70;60.70
41481;DHT22;27217;51.220;5.308;2024-03-06T12:32:38;15.30;66.50
41481;DHT22;27217;51.220;5.308;2024-03-06T12:35:04;15.30;67.60
41481;DHT22;27217;51.220;5.308;2024-03-06T12:37:30;15.00;68.10
41481;DHT22;27217;51.220;5.308;2024-03-06T12:39:56;15.20;67.00
41481;DHT22;27217;51.220;5.308;2024-03-06T12:42:22;14.80;68.70
41481;DHT22;27217;51.220;5.308;2024-03-06T12:44:49;14.90;68.00
41481;DHT22;27217;51.220;5.308;2024-03-06T12:47:15;15.20;66.00
41481;DHT22;27217;51.220;5.308;2024-03-06T12:49:40;15.60;61.90
41481;DHT22;27217;51.220;5.308;2024-03-06T12:52:06;15.80;60.70
41481;DHT22;27217;51.220;5.308;2024-03-06T12:54:32;15.50;61.60
41481;DHT22;27217;51.220;5.308;2024-03-06T12:56:57;15.90;61.30
41481;DHT22;27217;51.220;5.308;2024-03-06T12:59:23;16.10;58.70
41481;DHT22;27217;51.220;5.308;2024-03-06T13:01:49;16.10;58.70
41481;DHT22;27217;51.220;5.308;2024-03-06T13:04:14;15.60;60.90
41481;DHT22;27217;51.220;5.308;2024-03-06T13:06:40;15.50;63.20
41481;DHT22;27217;51.220;5.308;2024-03-06T13:09:06;15.50;61.00
41481;DHT22;27217;51.220;5.308;2024-03-06T13:11:35;15.70;60.10
41481;DHT22;27217;51.220;5.308;2024-03-06T13:14:00;15.60;60.00
41481;DHT22;27217;51.220;5.308;2024-03-06T13:16:26;15.60;60.50
41481;DHT22;27217;51.220;5.308;2024-03-06T13:18:52;15.40;60.20
41481;DHT22;27217;51.220;5.308;2024-03-06T13:21:22;15.10;62.90
41481;DHT22;27217;51.220;5.308;2024-03-06T13:23:48;15.40;62.70
41481;DHT22;27217;51.220;5.308;2024-03-06T13:26:14;15.30;63.10
41481;DHT22;27217;51.220;5.308;2024-03-06T13:28:40;15.60;62.30
41481;DHT22;27217;51.220;5.308;2024-03-06T13:31:06;15.80;60.10
41481;DHT22;27217;51.220;5.308;2024-03-06T13:33:32;15.70;57.30
41481;DHT22;27217;51.220;5.308;2024-03-06T13:35:58;15.50;56.80
41481;DHT22;27217;51.220;5.308;2024-03-06T13:38:23;15.40;57.00
41481;DHT22;27217;51.220;5.308;2024-03-06T13:40:49;15.30;57.90
41481;DHT22;27217;51.220;5.308;2024-03-06T13:43:15;15.50;55.10
41481;DHT22;27217;51.220;5.308;2024-03-06T13:45:48;15.60;54.80
41481;DHT22;27217;51.220;5.308;2024-03-06T13:48:14;15.70;53.20
41481;DHT22;27217;51.220;5.308;2024-03-06T13:50:42;15.50;53.30
41481;DHT22;27217;51.220;5.308;2024-03-06T13:53:08;15.40;52.90
41481;DHT22;27217;51.220;5.308;2024-03-06T13:55:33;15.40;53.60
41481;DHT22;27217;51.220;5.308;2024-03-06T13:58:00;15.10;53.40
41481;DHT22;27217;51.220;5.308;2024-03-06T14:00:27;15.00;54.40
41481;DHT22;27217;51.220;5.308;2024-03-06T14:02:53;15.10;54.10
41481;DHT22;27217;51.220;5.308;2024-03-06T14:05:19;15.10;54.80
41481;DHT22;27217;51.220;5.308;2024-03-06T14:07:50;15.30;55.30
41481;DHT22;27217;51.220;5.308;2024-03-06T14:10:16;15.60;54.20
41481;DHT22;27217;51.220;5.308;2024-03-06T14:12:44;15.80;53.80
41481;DHT22;27217;51.220;5.308;2024-03-06T14:15:10;15.60;53.00
41481;DHT22;27217;51.220;5.308;2024-03-06T14:17:39;15.30;53.50
41481;DHT22;27217;51.220;5.308;2024-03-06T14:20:05;15.20;52.50
41481;DHT22;27217;51.220;5.308;2024-03-06T14:22:31;15.00;53.60
41481;DHT22;27217;51.220;5.308;2024-03-06T14:24:57;15.10;54.00
41481;DHT22;27217;51.220;5.308;2024-03-06T14:27:23;15.40;52.40
41481;DHT22;27217;51.220;5.308;2024-03-06T14:29:48;15.70;50.70
41481;DHT22;27217;51.220;5.308;2024-03-06T14:32:14;15.80;51.20
41481;DHT22;27217;51.220;5.308;2024-03-06T14:34:40;15.40;51.10
41481;DHT22;27217;51.220;5.308;2024-03-06T14:37:08;15.60;50.80
41481;DHT22;27217;51.220;5.308;2024-03-06T14:39:34;15.80;51.00
41481;DHT22;27217;51.220;5.308;2024-03-06T14:41:59;15.90;50.60
41481;DHT22;27217;51.220;5.308;2024-03-06T14:44:25;16.10;50.00
41481;DHT22;27217;51.220;5.308;2024-03-06T14:46:51;15.70;49.60
41481;DHT22;27217;51.220;5.308;2024-03-06T14:49:16;15.60;50.80
41481;DHT22;27217;51.220;5.308;2024-03-06T14:51:42;15.60;51.70
41481;DHT22;27217;51.220;5.308;2024-03-06T14:54:08;15.70;51.70
41481;DHT22;27217;51.220;5.308;2024-03-06T14:56:34;15.80;51.80
41481;DHT22;27217;51.220;5.308;2024-03-06T14:58:59;15.70;52.70
41481;DHT22;27217;51.220;5.308;2024-03-06T15:01:25;15.40;54.70
41481;DHT22;27217;51.220;5.308;2024-03-06T15:03:51;15.40;56.20
41481;DHT22;27217;51.220;5.308;2024-03-06T15:06:16;15.50;56.20
41481;DHT22;27217;51.220;5.308;2024-03-06T15:08:42;15.40;56.70
41481;DHT22;27217;51.220;5.308;2024-03-06T15:11:10;15.30;57.30
41481;DHT22;27217;51.220;5.308;2024-03-06T15:13:36;15.10;58.00
41481;DHT22;27217;51.220;5.308;2024-03-06T15:16:01;15.20;57.50
41481;DHT22;27217;51.220;5.308;2024-03-06T15:18:29;14.80;59.20
41481;DHT22;27217;51.220;5.308;2024-03-06T15:20:55;14.50;60.20
41481;DHT22;27217;51.220;5.308;2024-03-06T15:23:21;14.30;62.80
41481;DHT22;27217;51.220;5.308;2024-03-06T15:25:47;14.40;64.00
41481;DHT22;27217;51.220;5.308;2024-03-06T15:28:12;14.50;62.70
41481;DHT22;27217;51.220;5.308;2024-03-06T15:30:38;14.40;63.10
41481;DHT22;27217;51.220;5.308;2024-03-06T15:33:04;14.40;62.60
41481;DHT22;27217;51.220;5.308;2024-03-06T15:35:29;14.40;62.90
41481;DHT22;27217;51.220;5.308;2024-03-06T15:37:55;14.40;62.90
41481;DHT22;27217;51.220;5.308;2024-03-06T15:40:21;14.40;63.60